createdAt,value
2023-05-21T00:01:58.108Z,3.20
2023-05-21T00:04:40.554Z,3.00
2023-05-21T00:07:27.126Z,3.15
2023-05-21T00:10:07.247Z,3.15
2023-05-21T00:12:54.141Z,3.35
2023-05-21T00:15:34.400Z,3.28
2023-05-21T00:18:21.120Z,3.40
2023-05-21T00:21:01.778Z,3.08
2023-05-21T00:23:49.132Z,3.40
2023-05-21T00:26:29.166Z,3.20
2023-05-21T00:29:16.150Z,3.65
2023-05-21T00:34:44.110Z,3.00
2023-05-21T00:37:24.755Z,3.20
2023-05-21T00:40:14.124Z,3.60
2023-05-21T00:43:03.135Z,3.50
2023-05-21T00:45:47.396Z,3.70
2023-05-21T00:48:34.134Z,3.22
2023-05-21T00:51:22.110Z,3.47
2023-05-21T00:54:10.119Z,3.50
2023-05-21T00:56:58.007Z,3.60
2023-05-21T00:59:39.117Z,3.47
2023-05-21T01:02:26.288Z,3.42
2023-05-21T01:05:20.144Z,3.58
2023-05-21T01:08:08.134Z,3.90
2023-05-21T01:10:48.177Z,3.80
2023-05-21T01:13:36.118Z,3.65
2023-05-21T01:16:17.872Z,3.75
2023-05-21T01:19:06.206Z,3.72
2023-05-21T01:21:59.125Z,3.70
2023-05-21T01:24:39.676Z,3.97
2023-05-21T01:27:26.113Z,3.85
2023-05-21T01:30:15.127Z,3.95
2023-05-21T01:32:59.294Z,4.00
2023-05-21T01:35:51.136Z,3.88
2023-05-21T01:39:14.118Z,3.80
2023-05-21T01:41:56.248Z,4.10
2023-05-21T01:44:44.117Z,4.18
2023-05-21T01:47:26.080Z,3.80
2023-05-21T01:50:14.139Z,4.07
2023-05-21T01:53:01.113Z,4.13
2023-05-21T01:55:48.134Z,3.85
2023-05-21T01:58:35.173Z,4.03
2023-05-21T02:01:15.165Z,4.40
2023-05-21T02:04:09.314Z,3.90
2023-05-21T02:06:56.147Z,4.45
2023-05-21T02:09:43.148Z,4.07
2023-05-21T02:12:30.130Z,4.22
2023-05-21T02:15:18.241Z,4.57
2023-05-21T02:17:58.678Z,4.70
2023-05-21T02:20:45.162Z,4.00
2023-05-21T02:23:32.259Z,3.83
2023-05-21T02:26:12.130Z,4.05
2023-05-21T02:28:59.266Z,4.20
2023-05-21T02:34:20.722Z,4.22
2023-05-21T02:37:07.138Z,4.72
2023-05-21T02:39:54.149Z,4.65
2023-05-21T02:45:24.133Z,3.95
2023-05-21T02:48:11.208Z,4.55
2023-05-21T02:50:58.126Z,4.13
2023-05-21T02:53:45.148Z,4.00
2023-05-21T02:56:32.130Z,3.78
2023-05-21T02:59:12.204Z,4.18
2023-05-21T03:01:59.171Z,4.25
2023-05-21T03:04:53.121Z,4.30
2023-05-21T03:07:40.143Z,4.30
2023-05-21T03:10:21.243Z,4.50
2023-05-21T03:13:11.170Z,4.18
2023-05-21T03:15:51.192Z,4.30
2023-05-21T03:18:38.168Z,4.10
2023-05-21T03:24:05.139Z,3.42
2023-05-21T03:29:32.171Z,4.38
2023-05-21T03:32:14.408Z,4.18
2023-05-21T03:35:03.141Z,4.15
2023-05-21T03:37:43.184Z,4.13
2023-05-21T03:40:30.153Z,4.60
2023-05-21T03:43:10.210Z,4.70
2023-05-21T03:45:57.197Z,3.67
2023-05-21T03:48:58.111Z,4.10
2023-05-21T03:51:46.151Z,4.07
2023-05-21T03:54:27.203Z,4.45
2023-05-21T03:57:18.150Z,4.30
2023-05-21T04:02:55.258Z,4.38
2023-05-21T04:05:42.431Z,3.67
2023-05-21T04:08:22.141Z,3.72
2023-05-21T04:11:09.303Z,4.00
2023-05-21T04:13:49.178Z,3.97
2023-05-21T04:16:30.007Z,3.95
2023-05-21T04:19:17.181Z,3.60
2023-05-21T04:24:45.168Z,4.68
2023-05-21T04:27:29.835Z,4.18
2023-05-21T04:30:17.167Z,4.20
2023-05-21T04:33:04.291Z,4.38
2023-05-21T04:38:24.725Z,3.72
2023-05-21T04:41:11.163Z,3.97
2023-05-21T04:43:55.331Z,4.57
2023-05-21T04:46:45.240Z,4.00
2023-05-21T04:49:25.727Z,3.72
2023-05-21T04:52:13.164Z,3.78
2023-05-21T04:57:40.274Z,3.92
2023-05-21T05:00:27.153Z,4.18
2023-05-21T05:03:07.340Z,3.80
2023-05-21T05:05:54.146Z,3.70
2023-05-21T05:08:34.201Z,4.03
2023-05-21T05:11:21.159Z,3.78
2023-05-21T05:14:09.175Z,3.78
2023-05-21T05:16:57.194Z,4.35
2023-05-21T05:19:37.237Z,4.00
2023-05-21T05:22:24.174Z,4.53
2023-05-21T05:25:04.216Z,3.65
2023-05-21T05:27:51.145Z,4.03
2023-05-21T05:33:29.173Z,4.60
2023-05-21T05:36:10.396Z,4.40
2023-05-21T05:38:50.163Z,4.47
2023-05-21T05:41:30.877Z,4.43
2023-05-21T05:44:17.177Z,4.28
2023-05-21T05:46:57.637Z,4.72
2023-05-21T05:49:44.165Z,4.45
2023-05-21T05:52:24.642Z,4.25
2023-05-21T05:55:11.170Z,4.40
2023-05-21T05:57:58.166Z,4.22
2023-05-21T06:00:40.247Z,4.40
2023-05-21T06:03:27.276Z,4.78
2023-05-21T06:06:19.270Z,4.78
2023-05-21T06:09:00.160Z,5.40
2023-05-21T06:14:27.177Z,4.35
2023-05-21T06:17:14.192Z,4.50
2023-05-21T06:19:54.215Z,4.60
2023-05-21T06:22:41.184Z,4.95
2023-05-21T06:25:21.217Z,4.65
2023-05-21T06:28:08.182Z,5.07
2023-05-21T06:30:48.210Z,5.03
2023-05-21T06:33:35.234Z,5.45
2023-05-21T06:36:15.250Z,4.80
2023-05-21T06:39:03.159Z,5.30
2023-05-21T06:41:51.190Z,4.93
2023-05-21T06:44:53.668Z,4.90
2023-05-21T06:47:44.253Z,4.60
2023-05-21T06:50:31.159Z,4.93
2023-05-21T06:53:18.190Z,5.20
2023-05-21T06:55:58.708Z,4.95
2023-05-21T06:58:55.153Z,4.53
2023-05-21T07:01:42.215Z,4.88
2023-05-21T07:04:29.186Z,4.10
2023-05-21T07:07:10.030Z,4.10
2023-05-21T07:09:57.207Z,3.60
2023-05-21T07:12:44.181Z,3.88
2023-05-21T07:15:32.167Z,3.90
2023-05-21T07:18:26.175Z,3.95
2023-05-21T07:21:06.733Z,3.92
2023-05-21T07:23:53.172Z,3.80
2023-05-21T07:26:33.673Z,3.60
2023-05-21T07:29:20.203Z,3.88
2023-05-21T07:32:00.764Z,3.58
2023-05-21T07:34:49.185Z,3.85
2023-05-21T07:37:39.219Z,3.63
2023-05-21T07:43:14.231Z,3.67
2023-05-21T07:45:54.218Z,3.45
2023-05-21T07:48:41.173Z,3.60
2023-05-21T07:54:08.194Z,3.60
2023-05-21T07:59:54.193Z,3.92
2023-05-21T08:02:44.255Z,3.78
2023-05-21T08:05:32.186Z,3.75
2023-05-21T08:08:12.853Z,3.63
2023-05-21T08:13:48.202Z,3.63
2023-05-21T08:16:35.205Z,4.03
2023-05-21T08:19:22.253Z,3.55
2023-05-21T08:22:03.462Z,3.88
2023-05-21T08:24:53.204Z,3.60
2023-05-21T08:27:33.657Z,4.20
2023-05-21T08:30:21.193Z,3.65
2023-05-21T08:33:08.387Z,3.80
2023-05-21T08:35:48.185Z,3.88
2023-05-21T08:38:35.125Z,3.63
2023-05-21T08:41:27.211Z,4.20
2023-05-21T08:44:19.244Z,4.00
2023-05-21T08:47:01.186Z,3.75
2023-05-21T08:49:49.049Z,3.50
2023-05-21T08:52:29.193Z,4.05
2023-05-21T08:55:16.262Z,3.95
2023-05-21T08:57:57.199Z,4.53
2023-05-21T09:00:44.186Z,3.78
2023-05-21T09:03:46.254Z,3.95
2023-05-21T09:06:34.195Z,3.80
2023-05-21T09:09:38.195Z,3.90
2023-05-21T09:12:19.212Z,3.90
2023-05-21T09:15:07.187Z,3.90
2023-05-21T09:17:50.455Z,3.70
2023-05-21T09:21:00.195Z,4.10
2023-05-21T09:23:40.727Z,4.15
2023-05-21T09:26:27.213Z,3.63
2023-05-21T09:29:19.277Z,4.07
2023-05-21T09:32:01.193Z,3.50
2023-05-21T09:34:42.686Z,3.85
2023-05-21T09:37:30.220Z,4.10
2023-05-21T09:40:18.481Z,3.70
2023-05-21T09:43:07.210Z,3.85
2023-05-21T09:45:55.757Z,3.90
2023-05-21T09:48:52.208Z,3.75
2023-05-21T09:51:33.016Z,4.10
2023-05-21T09:54:20.208Z,3.88
2023-05-21T09:57:02.699Z,3.90
2023-05-21T09:59:50.186Z,3.67
2023-05-21T10:02:32.546Z,4.07
2023-05-21T10:05:24.226Z,4.43
2023-05-21T10:08:11.209Z,4.10
2023-05-21T10:11:00.267Z,3.95
2023-05-21T10:13:53.253Z,4.43
2023-05-21T10:16:35.345Z,3.70
2023-05-21T10:19:22.687Z,3.95
2023-05-21T10:22:04.455Z,4.40
2023-05-21T10:24:52.208Z,3.92
2023-05-21T10:27:35.399Z,4.13
2023-05-21T10:30:24.216Z,4.18
2023-05-21T10:33:13.234Z,4.38
2023-05-21T10:35:58.093Z,4.10
2023-05-21T10:38:47.206Z,4.40
2023-05-21T10:41:39.219Z,4.70
2023-05-21T10:44:42.274Z,4.22
2023-05-21T10:47:55.277Z,4.25
2023-05-21T10:50:39.279Z,4.03
2023-05-21T10:53:46.218Z,4.38
2023-05-21T10:56:55.236Z,4.43
2023-05-21T11:00:01.214Z,4.32
2023-05-21T11:02:41.356Z,4.60
2023-05-21T11:05:48.227Z,4.85
2023-05-21T11:08:37.533Z,4.78
2023-05-21T11:11:49.208Z,4.50
2023-05-21T11:14:36.714Z,4.82
2023-05-21T11:17:23.273Z,4.70
2023-05-21T11:20:11.289Z,5.07
2023-05-21T11:22:58.248Z,4.75
2023-05-21T11:25:38.284Z,5.03
2023-05-21T11:28:40.236Z,4.65
2023-05-21T11:31:44.275Z,4.32
2023-05-21T11:34:28.700Z,4.88
2023-05-21T11:37:31.240Z,5.35
2023-05-21T11:40:26.101Z,5.43
2023-05-21T11:43:13.266Z,5.50
2023-05-21T11:46:08.285Z,4.93
2023-05-21T11:48:57.243Z,5.03
2023-05-21T11:51:37.318Z,5.15
2023-05-21T11:54:25.248Z,6.00
2023-05-21T11:57:07.199Z,5.22
2023-05-21T11:59:56.250Z,5.60
2023-05-21T12:05:37.308Z,5.55
2023-05-21T12:08:17.285Z,5.20
2023-05-21T12:11:08.245Z,5.70
2023-05-21T12:13:48.743Z,5.20
2023-05-21T12:16:35.299Z,5.25
2023-05-21T12:19:16.510Z,5.60
2023-05-21T12:22:04.241Z,5.50
2023-05-21T12:24:53.886Z,5.75
2023-05-21T12:27:35.206Z,5.70
2023-05-21T12:30:22.255Z,5.80
2023-05-21T12:33:12.272Z,5.88
2023-05-21T12:35:59.325Z,6.35
2023-05-21T12:38:39.256Z,6.15
2023-05-21T12:41:21.262Z,5.85
2023-05-21T12:44:08.258Z,6.10
2023-05-21T12:46:55.385Z,5.80
2023-05-21T12:49:40.254Z,6.38
2023-05-21T12:52:27.455Z,6.70
2023-05-21T12:55:09.391Z,5.82
2023-05-21T12:57:56.318Z,6.15
2023-05-21T13:00:36.565Z,5.85
2023-05-21T13:03:17.088Z,6.22
2023-05-21T13:06:12.264Z,6.45
2023-05-21T13:08:59.315Z,6.28
2023-05-21T13:11:39.307Z,6.70
2023-05-21T13:14:19.732Z,6.40
2023-05-21T13:17:06.261Z,6.50
2023-05-21T13:20:21.664Z,6.90
2023-05-21T13:23:10.497Z,6.57
2023-05-21T13:25:51.750Z,6.72
2023-05-21T13:28:38.254Z,6.78
2023-05-21T13:31:25.377Z,7.57
2023-05-21T13:34:05.619Z,6.97
2023-05-21T13:36:52.325Z,6.38
2023-05-21T13:39:34.277Z,6.95
2023-05-21T13:42:15.923Z,7.03
2023-05-21T13:45:03.318Z,6.47
2023-05-21T13:47:45.507Z,7.10
2023-05-21T13:50:32.283Z,6.43
2023-05-21T13:53:12.783Z,6.80
2023-05-21T13:55:59.275Z,6.35
2023-05-21T13:58:47.290Z,6.88
2023-05-21T14:01:34.342Z,6.80
2023-05-21T14:04:14.787Z,6.90
2023-05-21T14:07:01.304Z,7.13
2023-05-21T14:09:48.440Z,6.63
2023-05-21T14:12:28.282Z,6.82
2023-05-21T14:15:09.152Z,6.40
2023-05-21T14:17:56.382Z,6.35
2023-05-21T14:20:43.335Z,6.93
2023-05-21T14:23:23.280Z,6.65
2023-05-21T14:26:03.919Z,6.63
2023-05-21T14:28:50.294Z,6.55
2023-05-21T14:31:30.891Z,6.47
2023-05-21T14:34:17.264Z,6.18
2023-05-21T14:37:04.281Z,6.45
2023-05-21T14:39:51.296Z,6.80
2023-05-21T14:42:38.392Z,6.88
2023-05-21T14:45:19.394Z,6.10
2023-05-21T14:48:06.315Z,6.00
2023-05-21T14:50:53.298Z,5.80
2023-05-21T14:53:33.757Z,5.32
2023-05-21T14:56:21.327Z,5.55
2023-05-21T14:59:08.390Z,5.63
2023-05-21T15:01:48.329Z,4.70
2023-05-21T15:04:35.457Z,5.20
2023-05-21T15:07:29.281Z,4.63
2023-05-21T15:10:10.553Z,4.88
2023-05-21T15:12:57.292Z,4.00
2023-05-21T15:15:38.107Z,5.03
2023-05-21T15:18:25.295Z,4.88
2023-05-21T15:21:06.005Z,4.70
2023-05-21T15:23:52.282Z,4.35
2023-05-21T15:26:39.339Z,4.80
2023-05-21T15:29:19.286Z,5.03
2023-05-21T15:32:06.326Z,4.70
2023-05-21T15:34:46.372Z,4.47
2023-05-21T15:37:26.760Z,4.55
2023-05-21T15:40:15.285Z,4.85
2023-05-21T15:43:02.297Z,4.88
2023-05-21T15:45:42.364Z,4.80
2023-05-21T15:48:29.294Z,4.80
2023-05-21T15:51:09.384Z,4.10
2023-05-21T15:53:56.297Z,4.05
2023-05-21T15:56:36.461Z,4.32
2023-05-21T15:59:23.292Z,4.70
2023-05-21T16:02:03.395Z,4.50
2023-05-21T16:04:50.303Z,3.80
2023-05-21T16:07:38.365Z,4.10
2023-05-21T16:10:18.303Z,4.00
2023-05-21T16:12:59.160Z,4.30
2023-05-21T16:15:46.302Z,4.70
2023-05-21T16:18:33.337Z,4.35
2023-05-21T16:21:13.305Z,4.35
2023-05-21T16:23:53.847Z,3.85
2023-05-21T16:26:40.320Z,4.30
2023-05-21T16:29:22.048Z,4.40
2023-05-21T16:32:09.324Z,4.60
2023-05-21T16:34:49.866Z,4.35
2023-05-21T16:37:36.298Z,4.20
2023-05-21T16:40:23.393Z,4.28
2023-05-21T16:43:03.301Z,4.32
2023-05-21T16:45:46.323Z,4.20
2023-05-21T16:48:33.341Z,4.38
2023-05-21T16:51:13.867Z,4.43
2023-05-21T16:54:00.312Z,4.40
2023-05-21T16:56:40.764Z,4.30
2023-05-21T16:59:27.328Z,4.40
2023-05-21T17:02:09.915Z,4.43
2023-05-21T17:04:56.302Z,3.97
2023-05-21T17:07:43.420Z,4.60
2023-05-21T17:10:23.315Z,4.18
2023-05-21T17:13:21.536Z,4.07
2023-05-21T17:16:02.337Z,4.72
2023-05-21T17:18:49.428Z,4.80
2023-05-21T17:21:29.306Z,5.10
2023-05-21T17:24:09.790Z,5.30
2023-05-21T17:26:56.318Z,4.82
2023-05-21T17:29:43.324Z,4.70
2023-05-21T17:32:23.401Z,4.70
2023-05-21T17:35:10.317Z,5.03
2023-05-21T17:37:50.504Z,4.95
2023-05-21T17:40:37.362Z,4.85
2023-05-21T17:43:17.966Z,5.50
2023-05-21T17:46:04.338Z,4.80
2023-05-21T17:48:44.406Z,5.40
2023-05-21T17:51:31.329Z,5.38
2023-05-21T17:54:18.306Z,5.80
2023-05-21T17:56:58.777Z,5.47
2023-05-21T17:59:46.328Z,5.60
2023-05-21T18:02:33.407Z,6.03
2023-05-21T18:05:13.314Z,5.40
2023-05-21T18:08:04.074Z,6.00
2023-05-21T18:10:43.323Z,6.03
2023-05-21T18:13:23.949Z,6.13
2023-05-21T18:16:11.322Z,5.80
2023-05-21T18:18:51.840Z,6.53
2023-05-21T18:21:38.338Z,6.43
2023-05-21T18:24:18.776Z,6.35
2023-05-21T18:27:05.332Z,6.45
2023-05-21T18:29:46.911Z,7.57
2023-05-21T18:32:33.336Z,6.80
2023-05-21T18:35:15.798Z,6.32
2023-05-21T18:38:03.349Z,6.63
2023-05-21T18:40:43.856Z,6.75
2023-05-21T18:43:30.341Z,6.57
2023-05-21T18:46:10.862Z,6.90
2023-05-21T18:48:57.319Z,7.25
2023-05-21T18:51:44.394Z,6.38
2023-05-21T18:54:24.338Z,6.43
2023-05-21T18:57:04.942Z,7.35
2023-05-21T18:59:51.354Z,6.72
2023-05-21T19:02:31.861Z,7.47
2023-05-21T19:05:19.399Z,7.25
2023-05-21T19:08:06.465Z,7.15
2023-05-21T19:10:46.323Z,7.68
2023-05-21T19:13:26.885Z,7.85
2023-05-21T19:16:17.423Z,6.97
2023-05-21T19:19:04.455Z,7.30
2023-05-21T19:21:44.397Z,7.95
2023-05-21T19:24:31.354Z,8.05
2023-05-21T19:27:11.361Z,9.02
2023-05-21T19:30:06.327Z,8.57
2023-05-21T19:32:46.955Z,9.50
2023-05-21T19:35:34.348Z,9.23
2023-05-21T19:38:15.574Z,9.68
2023-05-21T19:41:03.328Z,8.55
2023-05-21T19:43:51.326Z,8.48
2023-05-21T19:46:38.333Z,10.68
2023-05-21T19:49:19.964Z,9.63
2023-05-21T19:52:06.338Z,9.02
2023-05-21T19:54:46.838Z,9.45
2023-05-21T19:57:33.340Z,9.32
2023-05-21T20:00:21.469Z,9.23
2023-05-21T20:03:02.409Z,9.63
2023-05-21T20:05:56.336Z,9.70
2023-05-21T20:08:43.361Z,8.85
2023-05-21T20:11:30.338Z,8.68
2023-05-21T20:14:10.882Z,9.63
2023-05-21T20:16:57.358Z,9.02
2023-05-21T20:19:47.899Z,8.85
2023-05-21T20:22:28.342Z,9.02
2023-05-21T20:25:16.326Z,9.20
2023-05-21T20:28:05.979Z,9.30
2023-05-21T20:31:06.401Z,9.32
2023-05-21T20:33:53.370Z,8.95
2023-05-21T20:36:41.377Z,8.93
2023-05-21T20:39:21.425Z,9.30
2023-05-21T20:42:08.362Z,7.88
2023-05-21T20:44:56.335Z,8.43
2023-05-21T20:47:43.606Z,9.05
2023-05-21T20:50:24.339Z,8.98
2023-05-21T20:53:15.744Z,8.70
2023-05-21T20:55:55.342Z,9.38
2023-05-21T20:58:42.321Z,8.55
2023-05-21T21:01:29.378Z,8.95
2023-05-21T21:04:09.872Z,8.40
2023-05-21T21:06:56.369Z,8.45
2023-05-21T21:09:37.274Z,8.70
2023-05-21T21:12:26.679Z,8.60
2023-05-21T21:15:14.340Z,8.80
2023-05-21T21:17:54.448Z,9.20
2023-05-21T21:20:41.682Z,9.23
2023-05-21T21:23:28.340Z,9.80
2023-05-21T21:26:16.519Z,9.10
2023-05-21T21:28:56.436Z,9.10
2023-05-21T21:31:51.324Z,9.50
2023-05-21T21:34:31.826Z,9.88
2023-05-21T21:37:18.342Z,9.00
2023-05-21T21:40:05.376Z,8.52
2023-05-21T21:42:46.319Z,8.57
2023-05-21T21:45:33.431Z,8.88
2023-05-21T21:48:20.360Z,9.75
2023-05-21T21:51:00.836Z,9.27
2023-05-21T21:53:48.361Z,9.48
2023-05-21T21:56:36.349Z,9.90
2023-05-21T21:59:16.852Z,9.68
2023-05-21T22:02:03.355Z,10.25
2023-05-21T22:04:50.406Z,8.98
2023-05-21T22:07:38.642Z,9.95
2023-05-21T22:10:22.351Z,10.38
2023-05-21T22:13:02.841Z,9.50
2023-05-21T22:15:49.359Z,9.82
2023-05-21T22:18:39.639Z,9.95
2023-05-21T22:21:27.445Z,9.45
2023-05-21T22:24:14.902Z,9.50
2023-05-21T22:27:11.355Z,9.93
2023-05-21T22:29:51.906Z,9.57
2023-05-21T22:32:38.414Z,10.30
2023-05-21T22:35:19.567Z,10.35
2023-05-21T22:38:06.357Z,9.32
2023-05-21T22:40:53.377Z,10.05
2023-05-21T22:43:33.490Z,10.23
2023-05-21T22:46:20.448Z,10.43
2023-05-21T22:49:00.472Z,10.45
2023-05-21T22:51:51.390Z,10.40
2023-05-21T22:54:31.545Z,10.85
2023-05-21T22:57:18.389Z,11.27
2023-05-21T23:00:05.369Z,11.20
2023-05-21T23:02:56.530Z,10.73
2023-05-21T23:05:43.422Z,10.07
2023-05-21T23:08:37.373Z,10.73
2023-05-21T23:11:24.373Z,10.60
2023-05-21T23:14:11.384Z,10.38
2023-05-21T23:17:00.379Z,10.07
2023-05-21T23:19:47.373Z,10.52
2023-05-21T23:22:27.857Z,11.23
2023-05-21T23:25:14.413Z,11.80
2023-05-21T23:28:01.406Z,11.57
2023-05-21T23:30:41.512Z,11.40
2023-05-21T23:33:21.877Z,10.35
2023-05-21T23:36:08.387Z,10.77
2023-05-21T23:38:48.891Z,11.15
2023-05-21T23:41:35.360Z,11.25
2023-05-21T23:44:22.382Z,10.85
2023-05-21T23:47:02.468Z,11.13
2023-05-21T23:49:49.381Z,11.63
2023-05-21T23:52:36.432Z,10.40
2023-05-21T23:55:23.399Z,11.48
2023-05-21T23:58:04.154Z,12.25
